TimeCDT,TemperatureF,Dew PointF,Humidity,Sea Level PressureIn,VisibilityMPH,Wind Direction,Wind SpeedMPH,Gust SpeedMPH,PrecipitationIn,Events,Conditions,WindDirDegrees,DateUTC
12:53 AM,64.0,62.1,93,30.02,10.0,Calm,Calm,-,N/A,,Clear,0,2012-10-06 05:53:00
1:53 AM,63.0,62.1,97,30.02,10.0,Calm,Calm,-,0.01,,Clear,0,2012-10-06 06:53:00
2:53 AM,62.1,61.0,96,30.01,10.0,Calm,Calm,-,N/A,,Clear,0,2012-10-06 07:53:00
3:53 AM,62.1,61.0,96,30.00,10.0,Calm,Calm,-,N/A,,Clear,0,2012-10-06 08:53:00
4:27 AM,60.8,60.8,100,30.00,10.0,Calm,Calm,-,N/A,,Mostly Cloudy,0,2012-10-06 09:27:00
4:43 AM,62.6,60.8,94,30.00,5.0,Calm,Calm,-,N/A,,Scattered Clouds,0,2012-10-06 09:43:00
4:53 AM,62.1,61.0,96,30.01,6.0,Calm,Calm,-,N/A,,Partly Cloudy,0,2012-10-06 09:53:00
5:53 AM,62.1,61.0,96,30.01,8.0,Calm,Calm,-,N/A,,Clear,0,2012-10-06 10:53:00
6:38 AM,60.8,60.8,100,30.01,9.0,Calm,Calm,-,N/A,,Scattered Clouds,0,2012-10-06 11:38:00
6:53 AM,61.0,60.1,97,30.02,10.0,Calm,Calm,-,N/A,,Mostly Cloudy,0,2012-10-06 11:53:00
7:30 AM,62.6,62.6,100,30.02,1.0,Calm,Calm,-,N/A,,Mist,0,2012-10-06 12:30:00
7:38 AM,62.6,62.6,100,30.02,0.8,Calm,Calm,-,N/A,,Mist,0,2012-10-06 12:38:00
7:43 AM,62.6,62.6,100,30.02,2.0,Calm,Calm,-,N/A,,Mostly Cloudy,0,2012-10-06 12:43:00
7:50 AM,62.6,62.6,100,30.02,7.0,Calm,Calm,-,N/A,,Overcast,0,2012-10-06 12:50:00
7:53 AM,63.0,62.1,97,30.02,7.0,Calm,Calm,-,N/A,,Overcast,0,2012-10-06 12:53:00
8:28 AM,68.0,66.2,94,30.02,2.5,North,3.5,-,N/A,,Mostly Cloudy,10,2012-10-06 13:28:00
8:44 AM,68.0,68.0,100,30.03,0.8,North,4.6,-,N/A,,Overcast,10,2012-10-06 13:44:00
9:08 AM,71.6,69.8,94,30.03,2.0,Calm,Calm,-,N/A,,Mostly Cloudy,0,2012-10-06 14:08:00
9:13 AM,71.6,69.8,94,30.03,4.0,Calm,Calm,-,N/A,,Scattered Clouds,0,2012-10-06 14:13:00
9:53 AM,77.0,70.0,79,30.03,10.0,Calm,Calm,-,N/A,,Clear,0,2012-10-06 14:53:00
10:53 AM,81.0,66.0,60,30.02,10.0,Calm,Calm,-,N/A,,Clear,0,2012-10-06 15:53:00
11:53 AM,82.9,63.0,51,30.01,10.0,Calm,Calm,-,N/A,,Clear,0,2012-10-06 16:53:00
12:53 PM,84.9,64.9,51,29.99,10.0,SSW,3.5,-,N/A,,Clear,210,2012-10-06 17:53:00
1:53 PM,86.0,64.9,49,29.96,10.0,Variable,3.5,-,N/A,,Partly Cloudy,0,2012-10-06 18:53:00
2:53 PM,87.1,66.0,49,29.94,10.0,Variable,3.5,-,N/A,,Clear,0,2012-10-06 19:53:00
4:53 PM,84.9,66.0,53,29.93,10.0,North,5.8,-,N/A,,Clear,350,2012-10-06 21:53:00
6:53 PM,77.0,69.1,76,29.96,10.0,North,8.1,-,N/A,,Clear,360,2012-10-06 23:53:00
7:53 PM,75.0,69.1,82,29.98,10.0,North,5.8,-,N/A,,Clear,360,2012-10-07 00:53:00
8:53 PM,72.0,68.0,87,30.00,10.0,North,5.8,-,N/A,,Clear,360,2012-10-07 01:53:00
9:53 PM,70.0,66.0,87,30.01,10.0,North,10.4,-,N/A,,Mostly Cloudy,360,2012-10-07 02:53:00
10:53 PM,68.0,64.9,90,30.01,10.0,North,8.1,-,N/A,,Partly Cloudy,360,2012-10-07 03:53:00
11:53 PM,66.9,64.0,90,30.01,10.0,North,6.9,-,N/A,,Clear,360,2012-10-07 04:53:00